sensor_id;sensor_type;location;lat;lon;timestamp;temperature;humidity
46366;DHT22;32073;49.166;8.076;2022-12-07T00:03:53;9.70;58.90
46366;DHT22;32073;49.166;8.076;2022-12-07T00:07:57;9.70;58.70
46366;DHT22;32073;49.166;8.076;2022-12-07T00:11:57;9.60;58.50
46366;DHT22;32073;49.166;8.076;2022-12-07T00:16:26;9.60;58.60
46366;DHT22;32073;49.166;8.076;2022-12-07T00:20:28;9.50;58.50
46366;DHT22;32073;49.166;8.076;2022-12-07T00:24:28;9.40;58.70
46366;DHT22;32073;49.166;8.076;2022-12-07T00:28:29;9.40;58.80
46366;DHT22;32073;49.166;8.076;2022-12-07T00:32:30;9.30;58.80
46366;DHT22;32073;49.166;8.076;2022-12-07T00:36:30;9.20;58.70
46366;DHT22;32073;49.166;8.076;2022-12-07T00:40:31;9.30;58.90
46366;DHT22;32073;49.166;8.076;2022-12-07T00:44:32;9.30;59.00
46366;DHT22;32073;49.166;8.076;2022-12-07T00:48:32;9.30;59.10
46366;DHT22;32073;49.166;8.076;2022-12-07T00:52:33;9.30;59.10
46366;DHT22;32073;49.166;8.076;2022-12-07T00:56:34;9.30;59.00
46366;DHT22;32073;49.166;8.076;2022-12-07T01:00:39;9.40;59.00
46366;DHT22;32073;49.166;8.076;2022-12-07T01:04:40;9.40;58.80
46366;DHT22;32073;49.166;8.076;2022-12-07T01:08:41;9.40;58.80
46366;DHT22;32073;49.166;8.076;2022-12-07T01:12:42;9.40;58.80
46366;DHT22;32073;49.166;8.076;2022-12-07T01:16:42;9.40;58.80
46366;DHT22;32073;49.166;8.076;2022-12-07T01:20:43;9.50;58.90
46366;DHT22;32073;49.166;8.076;2022-12-07T01:24:44;9.50;58.80
46366;DHT22;32073;49.166;8.076;2022-12-07T01:28:47;9.50;58.70
46366;DHT22;32073;49.166;8.076;2022-12-07T01:32:48;9.50;58.60
46366;DHT22;32073;49.166;8.076;2022-12-07T01:36:48;9.50;58.60
46366;DHT22;32073;49.166;8.076;2022-12-07T01:40:54;9.50;58.60
46366;DHT22;32073;49.166;8.076;2022-12-07T01:45:39;9.50;58.50
46366;DHT22;32073;49.166;8.076;2022-12-07T01:49:46;9.50;58.20
46366;DHT22;32073;49.166;8.076;2022-12-07T01:53:48;9.50;58.40
46366;DHT22;32073;49.166;8.076;2022-12-07T01:57:51;9.50;58.30
46366;DHT22;32073;49.166;8.076;2022-12-07T02:01:54;9.50;58.30
46366;DHT22;32073;49.166;8.076;2022-12-07T02:05:57;9.40;58.30
46366;DHT22;32073;49.166;8.076;2022-12-07T02:10:16;9.40;58.30
46366;DHT22;32073;49.166;8.076;2022-12-07T02:14:25;9.40;58.20
46366;DHT22;32073;49.166;8.076;2022-12-07T02:27:37;9.30;58.40
46366;DHT22;32073;49.166;8.076;2022-12-07T02:36:28;9.30;58.50
46366;DHT22;32073;49.166;8.076;2022-12-07T02:40:44;9.20;58.20
46366;DHT22;32073;49.166;8.076;2022-12-07T02:44:51;9.20;58.20
46366;DHT22;32073;49.166;8.076;2022-12-07T02:48:54;9.10;58.20
46366;DHT22;32073;49.166;8.076;2022-12-07T02:52:55;9.10;58.20
46366;DHT22;32073;49.166;8.076;2022-12-07T02:57:20;9.10;58.20
46366;DHT22;32073;49.166;8.076;2022-12-07T03:06:36;9.00;57.90
46366;DHT22;32073;49.166;8.076;2022-12-07T03:10:59;8.90;57.90
46366;DHT22;32073;49.166;8.076;2022-12-07T03:15:12;8.90;57.90
46366;DHT22;32073;49.166;8.076;2022-12-07T03:19:20;8.90;58.00
46366;DHT22;32073;49.166;8.076;2022-12-07T03:23:23;8.80;58.10
46366;DHT22;32073;49.166;8.076;2022-12-07T03:27:38;8.80;58.20
46366;DHT22;32073;49.166;8.076;2022-12-07T03:31:45;8.80;58.10
46366;DHT22;32073;49.166;8.076;2022-12-07T03:35:57;8.80;58.20
46366;DHT22;32073;49.166;8.076;2022-12-07T03:40:21;8.80;58.20
46366;DHT22;32073;49.166;8.076;2022-12-07T03:44:24;8.80;58.10
46366;DHT22;32073;49.166;8.076;2022-12-07T03:48:35;8.80;58.20
46366;DHT22;32073;49.166;8.076;2022-12-07T03:52:42;8.80;58.10
46366;DHT22;32073;49.166;8.076;2022-12-07T03:56:47;8.80;58.20
46366;DHT22;32073;49.166;8.076;2022-12-07T04:00:50;8.80;58.20
46366;DHT22;32073;49.166;8.076;2022-12-07T04:04:51;8.80;58.10
46366;DHT22;32073;49.166;8.076;2022-12-07T04:08:52;8.70;58.10
46366;DHT22;32073;49.166;8.076;2022-12-07T04:12:53;8.70;58.00
46366;DHT22;32073;49.166;8.076;2022-12-07T04:16:55;8.70;58.00
46366;DHT22;32073;49.166;8.076;2022-12-07T04:20:57;8.70;57.90
46366;DHT22;32073;49.166;8.076;2022-12-07T04:24:58;8.70;58.00
46366;DHT22;32073;49.166;8.076;2022-12-07T04:28:59;8.80;58.10
46366;DHT22;32073;49.166;8.076;2022-12-07T04:32:59;8.80;58.10
46366;DHT22;32073;49.166;8.076;2022-12-07T04:37:00;8.80;58.00
46366;DHT22;32073;49.166;8.076;2022-12-07T04:41:05;8.70;57.80
46366;DHT22;32073;49.166;8.076;2022-12-07T04:45:07;8.70;58.20
46366;DHT22;32073;49.166;8.076;2022-12-07T04:49:09;8.70;57.80
46366;DHT22;32073;49.166;8.076;2022-12-07T04:53:10;8.70;57.90
46366;DHT22;32073;49.166;8.076;2022-12-07T04:57:11;8.80;57.90
46366;DHT22;32073;49.166;8.076;2022-12-07T05:01:12;8.80;57.90
46366;DHT22;32073;49.166;8.076;2022-12-07T05:05:14;8.80;57.80
46366;DHT22;32073;49.166;8.076;2022-12-07T05:09:15;8.80;57.70
46366;DHT22;32073;49.166;8.076;2022-12-07T05:13:16;8.80;57.60
46366;DHT22;32073;49.166;8.076;2022-12-07T05:17:17;8.90;57.70
46366;DHT22;32073;49.166;8.076;2022-12-07T05:21:17;8.80;57.70
46366;DHT22;32073;49.166;8.076;2022-12-07T05:25:18;8.90;57.70
46366;DHT22;32073;49.166;8.076;2022-12-07T05:29:19;8.90;57.80
46366;DHT22;32073;49.166;8.076;2022-12-07T05:33:19;8.90;57.80
46366;DHT22;32073;49.166;8.076;2022-12-07T05:37:20;8.90;57.80
46366;DHT22;32073;49.166;8.076;2022-12-07T05:41:21;8.90;57.90
46366;DHT22;32073;49.166;8.076;2022-12-07T05:45:40;9.00;57.90
46366;DHT22;32073;49.166;8.076;2022-12-07T05:49:41;9.00;57.90
46366;DHT22;32073;49.166;8.076;2022-12-07T05:53:42;9.00;57.80
46366;DHT22;32073;49.166;8.076;2022-12-07T05:57:43;9.00;57.80
46366;DHT22;32073;49.166;8.076;2022-12-07T06:02:09;9.00;57.80
46366;DHT22;32073;49.166;8.076;2022-12-07T06:06:11;9.00;57.70
46366;DHT22;32073;49.166;8.076;2022-12-07T06:10:12;9.00;57.80
46366;DHT22;32073;49.166;8.076;2022-12-07T06:14:12;8.90;57.80
46366;DHT22;32073;49.166;8.076;2022-12-07T06:18:13;8.90;57.90
46366;DHT22;32073;49.166;8.076;2022-12-07T06:22:14;8.90;58.10
46366;DHT22;32073;49.166;8.076;2022-12-07T06:26:16;8.90;58.10
46366;DHT22;32073;49.166;8.076;2022-12-07T06:30:16;8.80;58.20
46366;DHT22;32073;49.166;8.076;2022-12-07T06:34:19;8.80;58.20
46366;DHT22;32073;49.166;8.076;2022-12-07T06:38:23;8.80;58.20
46366;DHT22;32073;49.166;8.076;2022-12-07T06:42:23;8.70;58.20
46366;DHT22;32073;49.166;8.076;2022-12-07T06:46:24;8.70;58.30
46366;DHT22;32073;49.166;8.076;2022-12-07T06:50:25;8.60;58.30
46366;DHT22;32073;49.166;8.076;2022-12-07T06:54:26;8.60;58.50
46366;DHT22;32073;49.166;8.076;2022-12-07T06:58:27;8.60;58.60
46366;DHT22;32073;49.166;8.076;2022-12-07T07:02:28;8.70;58.70
46366;DHT22;32073;49.166;8.076;2022-12-07T07:06:29;8.70;58.70
46366;DHT22;32073;49.166;8.076;2022-12-07T07:10:29;8.70;58.60
46366;DHT22;32073;49.166;8.076;2022-12-07T07:14:30;8.80;58.70
46366;DHT22;32073;49.166;8.076;2022-12-07T07:18:30;8.80;58.60
46366;DHT22;32073;49.166;8.076;2022-12-07T07:22:31;8.80;58.70
46366;DHT22;32073;49.166;8.076;2022-12-07T07:26:32;8.90;58.80
46366;DHT22;32073;49.166;8.076;2022-12-07T07:30:32;8.90;58.80
46366;DHT22;32073;49.166;8.076;2022-12-07T07:34:34;9.00;58.80
46366;DHT22;32073;49.166;8.076;2022-12-07T07:38:34;9.00;58.80
46366;DHT22;32073;49.166;8.076;2022-12-07T07:42:35;9.00;58.70
46366;DHT22;32073;49.166;8.076;2022-12-07T07:46:36;9.00;58.50
46366;DHT22;32073;49.166;8.076;2022-12-07T07:50:37;9.00;58.40
46366;DHT22;32073;49.166;8.076;2022-12-07T07:54:37;9.00;58.40
46366;DHT22;32073;49.166;8.076;2022-12-07T07:58:38;8.90;58.50
46366;DHT22;32073;49.166;8.076;2022-12-07T08:02:40;8.90;58.60
46366;DHT22;32073;49.166;8.076;2022-12-07T08:06:41;8.90;58.60
46366;DHT22;32073;49.166;8.076;2022-12-07T08:10:42;8.90;58.70
46366;DHT22;32073;49.166;8.076;2022-12-07T08:14:43;9.00;58.80
46366;DHT22;32073;49.166;8.076;2022-12-07T08:18:44;9.00;58.70
46366;DHT22;32073;49.166;8.076;2022-12-07T08:22:44;9.00;58.70
46366;DHT22;32073;49.166;8.076;2022-12-07T08:26:45;9.10;58.90
46366;DHT22;32073;49.166;8.076;2022-12-07T08:30:45;9.10;58.90
46366;DHT22;32073;49.166;8.076;2022-12-07T08:34:46;9.20;59.00
46366;DHT22;32073;49.166;8.076;2022-12-07T08:38:47;9.20;59.00
46366;DHT22;32073;49.166;8.076;2022-12-07T08:42:51;9.30;59.10
46366;DHT22;32073;49.166;8.076;2022-12-07T08:46:56;9.40;59.20
46366;DHT22;32073;49.166;8.076;2022-12-07T08:51:01;9.40;59.10
46366;DHT22;32073;49.166;8.076;2022-12-07T08:55:03;9.50;59.20
46366;DHT22;32073;49.166;8.076;2022-12-07T08:59:05;9.50;59.00
46366;DHT22;32073;49.166;8.076;2022-12-07T09:03:07;9.50;58.90
46366;DHT22;32073;49.166;8.076;2022-12-07T09:07:07;9.60;58.90
46366;DHT22;32073;49.166;8.076;2022-12-07T09:11:09;9.50;58.80
46366;DHT22;32073;49.166;8.076;2022-12-07T09:15:10;9.50;58.70
46366;DHT22;32073;49.166;8.076;2022-12-07T09:19:10;9.50;58.70
46366;DHT22;32073;49.166;8.076;2022-12-07T09:23:11;9.50;58.80
46366;DHT22;32073;49.166;8.076;2022-12-07T09:27:12;9.40;58.80
46366;DHT22;32073;49.166;8.076;2022-12-07T09:31:12;9.50;59.00
46366;DHT22;32073;49.166;8.076;2022-12-07T09:35:13;9.50;59.00
46366;DHT22;32073;49.166;8.076;2022-12-07T09:39:14;9.50;59.10
46366;DHT22;32073;49.166;8.076;2022-12-07T09:43:23;9.60;59.20
46366;DHT22;32073;49.166;8.076;2022-12-07T09:47:26;9.60;59.00
46366;DHT22;32073;49.166;8.076;2022-12-07T09:51:27;9.70;59.20
46366;DHT22;32073;49.166;8.076;2022-12-07T09:55:29;9.80;59.30
46366;DHT22;32073;49.166;8.076;2022-12-07T09:59:31;9.80;59.20
46366;DHT22;32073;49.166;8.076;2022-12-07T10:03:31;9.90;59.20
46366;DHT22;32073;49.166;8.076;2022-12-07T10:07:32;10.00;59.20
46366;DHT22;32073;49.166;8.076;2022-12-07T10:11:33;10.00;59.00
46366;DHT22;32073;49.166;8.076;2022-12-07T10:15:57;10.10;59.00
46366;DHT22;32073;49.166;8.076;2022-12-07T10:20:21;10.10;58.80
46366;DHT22;32073;49.166;8.076;2022-12-07T10:24:24;10.10;58.80
46366;DHT22;32073;49.166;8.076;2022-12-07T10:28:34;10.20;59.00
46366;DHT22;32073;49.166;8.076;2022-12-07T10:32:36;10.30;58.90
46366;DHT22;32073;49.166;8.076;2022-12-07T10:36:38;10.30;59.00
46366;DHT22;32073;49.166;8.076;2022-12-07T10:40:39;10.30;58.90
46366;DHT22;32073;49.166;8.076;2022-12-07T10:44:40;10.30;58.90
46366;DHT22;32073;49.166;8.076;2022-12-07T11:07:22;10.50;58.40
46366;DHT22;32073;49.166;8.076;2022-12-07T11:16:50;10.60;58.40
46366;DHT22;32073;49.166;8.076;2022-12-07T11:21:18;10.70;58.20
46366;DHT22;32073;49.166;8.076;2022-12-07T11:34:00;10.70;58.40
46366;DHT22;32073;49.166;8.076;2022-12-07T11:38:17;10.90;58.50
46366;DHT22;32073;49.166;8.076;2022-12-07T11:42:25;10.90;58.40
46366;DHT22;32073;49.166;8.076;2022-12-07T11:46:45;11.00;58.50
46366;DHT22;32073;49.166;8.076;2022-12-07T11:50:52;11.10;58.20
46366;DHT22;32073;49.166;8.076;2022-12-07T11:54:55;11.10;58.40
46366;DHT22;32073;49.166;8.076;2022-12-07T11:59:19;11.20;58.40
46366;DHT22;32073;49.166;8.076;2022-12-07T12:03:34;11.20;57.90
46366;DHT22;32073;49.166;8.076;2022-12-07T12:07:38;11.30;58.10
46366;DHT22;32073;49.166;8.076;2022-12-07T12:16:51;11.30;58.00
46366;DHT22;32073;49.166;8.076;2022-12-07T12:21:06;11.40;57.70
46366;DHT22;32073;49.166;8.076;2022-12-07T12:25:29;11.40;57.70
46366;DHT22;32073;49.166;8.076;2022-12-07T12:29:41;11.40;57.50
46366;DHT22;32073;49.166;8.076;2022-12-07T12:33:49;11.50;57.80
46366;DHT22;32073;49.166;8.076;2022-12-07T12:37:53;11.50;57.50
46366;DHT22;32073;49.166;8.076;2022-12-07T12:41:56;11.50;57.60
46366;DHT22;32073;49.166;8.076;2022-12-07T13:03:56;11.40;57.40
46366;DHT22;32073;49.166;8.076;2022-12-07T13:12:05;11.40;57.30
46366;DHT22;32073;49.166;8.076;2022-12-07T13:20:44;11.30;57.00
46366;DHT22;32073;49.166;8.076;2022-12-07T13:24:46;11.30;56.50
46366;DHT22;32073;49.166;8.076;2022-12-07T13:29:11;11.20;56.70
46366;DHT22;32073;49.166;8.076;2022-12-07T13:33:17;11.20;56.10
46366;DHT22;32073;49.166;8.076;2022-12-07T13:37:27;11.20;56.50
46366;DHT22;32073;49.166;8.076;2022-12-07T13:41:29;11.10;56.10
46366;DHT22;32073;49.166;8.076;2022-12-07T13:45:32;11.10;56.20
46366;DHT22;32073;49.166;8.076;2022-12-07T13:49:51;11.00;55.90
46366;DHT22;32073;49.166;8.076;2022-12-07T13:53:59;11.00;55.90
46366;DHT22;32073;49.166;8.076;2022-12-07T13:58:00;10.90;56.00
46366;DHT22;32073;49.166;8.076;2022-12-07T14:02:01;10.90;56.20
46366;DHT22;32073;49.166;8.076;2022-12-07T14:06:18;10.90;56.10
46366;DHT22;32073;49.166;8.076;2022-12-07T14:10:34;10.90;55.60
46366;DHT22;32073;49.166;8.076;2022-12-07T14:14:36;10.90;55.90
46366;DHT22;32073;49.166;8.076;2022-12-07T14:18:39;10.90;56.10
46366;DHT22;32073;49.166;8.076;2022-12-07T14:22:40;10.80;56.00
46366;DHT22;32073;49.166;8.076;2022-12-07T14:26:41;10.80;56.10
46366;DHT22;32073;49.166;8.076;2022-12-07T14:30:45;10.80;56.00
46366;DHT22;32073;49.166;8.076;2022-12-07T14:38:56;10.80;55.70
46366;DHT22;32073;49.166;8.076;2022-12-07T14:43:03;10.80;56.00
46366;DHT22;32073;49.166;8.076;2022-12-07T14:47:10;10.80;55.90
46366;DHT22;32073;49.166;8.076;2022-12-07T14:51:12;10.70;55.90
46366;DHT22;32073;49.166;8.076;2022-12-07T14:55:22;10.70;55.80
46366;DHT22;32073;49.166;8.076;2022-12-07T14:59:24;10.60;55.70
46366;DHT22;32073;49.166;8.076;2022-12-07T15:03:25;10.50;55.60
46366;DHT22;32073;49.166;8.076;2022-12-07T15:07:26;10.50;55.60
46366;DHT22;32073;49.166;8.076;2022-12-07T15:11:28;10.40;55.60
46366;DHT22;32073;49.166;8.076;2022-12-07T15:15:28;10.30;55.60
46366;DHT22;32073;49.166;8.076;2022-12-07T15:19:29;10.20;55.70
46366;DHT22;32073;49.166;8.076;2022-12-07T15:23:30;10.00;55.70
46366;DHT22;32073;49.166;8.076;2022-12-07T15:27:31;10.00;55.80
46366;DHT22;32073;49.166;8.076;2022-12-07T15:31:32;9.90;55.90
46366;DHT22;32073;49.166;8.076;2022-12-07T15:35:34;9.80;56.00
46366;DHT22;32073;49.166;8.076;2022-12-07T15:39:42;9.80;56.10
46366;DHT22;32073;49.166;8.076;2022-12-07T15:43:43;9.80;56.10
46366;DHT22;32073;49.166;8.076;2022-12-07T15:48:13;9.70;56.10
46366;DHT22;32073;49.166;8.076;2022-12-07T15:52:13;9.70;56.10
46366;DHT22;32073;49.166;8.076;2022-12-07T15:56:14;9.60;56.10
46366;DHT22;32073;49.166;8.076;2022-12-07T16:00:15;9.60;56.10
46366;DHT22;32073;49.166;8.076;2022-12-07T16:04:16;9.50;56.10
46366;DHT22;32073;49.166;8.076;2022-12-07T16:08:17;9.50;56.20
46366;DHT22;32073;49.166;8.076;2022-12-07T16:12:17;9.50;56.20
46366;DHT22;32073;49.166;8.076;2022-12-07T16:16:19;9.40;56.20
46366;DHT22;32073;49.166;8.076;2022-12-07T16:20:22;9.40;56.20
46366;DHT22;32073;49.166;8.076;2022-12-07T16:24:22;9.30;56.30
46366;DHT22;32073;49.166;8.076;2022-12-07T16:28:23;9.30;56.90
46366;DHT22;32073;49.166;8.076;2022-12-07T16:32:24;9.30;56.50
46366;DHT22;32073;49.166;8.076;2022-12-07T16:36:25;9.20;56.40
46366;DHT22;32073;49.166;8.076;2022-12-07T16:40:27;9.20;56.40
46366;DHT22;32073;49.166;8.076;2022-12-07T16:44:28;9.10;56.30
46366;DHT22;32073;49.166;8.076;2022-12-07T16:48:28;9.10;56.20
46366;DHT22;32073;49.166;8.076;2022-12-07T16:52:29;9.00;56.20
46366;DHT22;32073;49.166;8.076;2022-12-07T16:56:30;8.90;56.20
46366;DHT22;32073;49.166;8.076;2022-12-07T17:00:30;8.80;56.20
46366;DHT22;32073;49.166;8.076;2022-12-07T17:04:33;8.80;56.30
46366;DHT22;32073;49.166;8.076;2022-12-07T17:08:34;8.70;56.40
46366;DHT22;32073;49.166;8.076;2022-12-07T17:12:34;8.60;56.50
46366;DHT22;32073;49.166;8.076;2022-12-07T17:16:36;8.60;56.70
46366;DHT22;32073;49.166;8.076;2022-12-07T17:20:36;8.60;56.70
46366;DHT22;32073;49.166;8.076;2022-12-07T17:24:38;8.60;56.80
46366;DHT22;32073;49.166;8.076;2022-12-07T17:28:39;8.60;56.80
46366;DHT22;32073;49.166;8.076;2022-12-07T17:32:40;8.50;56.60
46366;DHT22;32073;49.166;8.076;2022-12-07T17:36:41;8.50;56.60
46366;DHT22;32073;49.166;8.076;2022-12-07T17:40:42;8.50;56.60
46366;DHT22;32073;49.166;8.076;2022-12-07T17:44:42;8.40;56.60
46366;DHT22;32073;49.166;8.076;2022-12-07T17:48:43;8.40;56.70
46366;DHT22;32073;49.166;8.076;2022-12-07T17:52:43;8.40;56.80
46366;DHT22;32073;49.166;8.076;2022-12-07T17:57:02;8.30;56.80
46366;DHT22;32073;49.166;8.076;2022-12-07T18:01:08;8.40;56.70
46366;DHT22;32073;49.166;8.076;2022-12-07T18:05:09;8.30;56.80
46366;DHT22;32073;49.166;8.076;2022-12-07T18:09:10;8.20;56.90
46366;DHT22;32073;49.166;8.076;2022-12-07T18:13:11;8.20;56.90
46366;DHT22;32073;49.166;8.076;2022-12-07T18:17:30;8.20;57.00
46366;DHT22;32073;49.166;8.076;2022-12-07T18:21:32;8.20;57.00
46366;DHT22;32073;49.166;8.076;2022-12-07T18:25:33;8.20;57.10
46366;DHT22;32073;49.166;8.076;2022-12-07T18:29:33;8.10;57.20
46366;DHT22;32073;49.166;8.076;2022-12-07T18:33:35;8.10;57.50
46366;DHT22;32073;49.166;8.076;2022-12-07T18:37:36;8.10;57.30
46366;DHT22;32073;49.166;8.076;2022-12-07T18:41:38;8.10;57.40
46366;DHT22;32073;49.166;8.076;2022-12-07T18:45:41;8.20;58.00
46366;DHT22;32073;49.166;8.076;2022-12-07T18:49:43;8.20;57.40
46366;DHT22;32073;49.166;8.076;2022-12-07T18:53:44;8.20;57.40
46366;DHT22;32073;49.166;8.076;2022-12-07T18:57:45;8.20;57.30
46366;DHT22;32073;49.166;8.076;2022-12-07T19:01:53;8.20;57.20
46366;DHT22;32073;49.166;8.076;2022-12-07T19:05:54;8.20;57.20
46366;DHT22;32073;49.166;8.076;2022-12-07T19:09:57;8.20;57.20
46366;DHT22;32073;49.166;8.076;2022-12-07T19:13:57;8.20;57.20
46366;DHT22;32073;49.166;8.076;2022-12-07T19:17:58;8.20;57.90
46366;DHT22;32073;49.166;8.076;2022-12-07T19:21:59;8.10;57.20
46366;DHT22;32073;49.166;8.076;2022-12-07T19:26:00;8.10;57.30
46366;DHT22;32073;49.166;8.076;2022-12-07T19:30:00;8.10;57.30
46366;DHT22;32073;49.166;8.076;2022-12-07T19:34:01;8.10;57.40
46366;DHT22;32073;49.166;8.076;2022-12-07T19:38:07;8.10;57.50
46366;DHT22;32073;49.166;8.076;2022-12-07T19:42:08;8.10;57.50
46366;DHT22;32073;49.166;8.076;2022-12-07T19:46:09;8.20;57.50
46366;DHT22;32073;49.166;8.076;2022-12-07T19:50:09;8.20;57.40
46366;DHT22;32073;49.166;8.076;2022-12-07T19:54:12;8.20;57.40
46366;DHT22;32073;49.166;8.076;2022-12-07T19:58:14;8.10;57.30
46366;DHT22;32073;49.166;8.076;2022-12-07T20:02:15;8.10;57.30
46366;DHT22;32073;49.166;8.076;2022-12-07T20:06:18;8.10;57.30
46366;DHT22;32073;49.166;8.076;2022-12-07T20:10:19;8.10;57.40
46366;DHT22;32073;49.166;8.076;2022-12-07T20:14:20;8.10;57.40
46366;DHT22;32073;49.166;8.076;2022-12-07T20:18:21;8.00;57.30
46366;DHT22;32073;49.166;8.076;2022-12-07T20:22:22;8.00;57.40
46366;DHT22;32073;49.166;8.076;2022-12-07T20:26:22;8.00;57.30
46366;DHT22;32073;49.166;8.076;2022-12-07T20:30:23;8.00;57.30
46366;DHT22;32073;49.166;8.076;2022-12-07T20:34:24;8.00;57.30
46366;DHT22;32073;49.166;8.076;2022-12-07T20:38:27;8.00;57.30
46366;DHT22;32073;49.166;8.076;2022-12-07T20:42:28;8.00;57.40
46366;DHT22;32073;49.166;8.076;2022-12-07T20:46:37;8.00;57.40
46366;DHT22;32073;49.166;8.076;2022-12-07T20:50:38;8.00;57.50
46366;DHT22;32073;49.166;8.076;2022-12-07T20:54:39;8.00;57.60
46366;DHT22;32073;49.166;8.076;2022-12-07T20:58:39;8.00;57.50
46366;DHT22;32073;49.166;8.076;2022-12-07T21:02:40;8.00;57.50
46366;DHT22;32073;49.166;8.076;2022-12-07T21:06:41;8.00;57.50
46366;DHT22;32073;49.166;8.076;2022-12-07T21:10:42;8.00;57.50
46366;DHT22;32073;49.166;8.076;2022-12-07T21:14:43;7.90;57.50
46366;DHT22;32073;49.166;8.076;2022-12-07T21:18:44;8.00;57.70
46366;DHT22;32073;49.166;8.076;2022-12-07T21:22:47;7.90;57.70
46366;DHT22;32073;49.166;8.076;2022-12-07T21:26:47;7.90;57.80
46366;DHT22;32073;49.166;8.076;2022-12-07T21:30:48;8.00;57.80
46366;DHT22;32073;49.166;8.076;2022-12-07T21:34:49;8.00;57.60
46366;DHT22;32073;49.166;8.076;2022-12-07T21:38:50;8.00;57.50
46366;DHT22;32073;49.166;8.076;2022-12-07T21:42:54;7.90;57.50
46366;DHT22;32073;49.166;8.076;2022-12-07T21:46:55;7.90;57.50
46366;DHT22;32073;49.166;8.076;2022-12-07T21:51:05;7.80;57.40
46366;DHT22;32073;49.166;8.076;2022-12-07T21:55:10;7.80;57.50
46366;DHT22;32073;49.166;8.076;2022-12-07T21:59:15;7.80;57.50
46366;DHT22;32073;49.166;8.076;2022-12-07T22:03:22;7.70;57.60
46366;DHT22;32073;49.166;8.076;2022-12-07T22:07:23;7.70;57.60
46366;DHT22;32073;49.166;8.076;2022-12-07T22:11:24;7.70;57.70
46366;DHT22;32073;49.166;8.076;2022-12-07T22:15:26;7.70;57.70
46366;DHT22;32073;49.166;8.076;2022-12-07T22:19:27;7.70;57.60
46366;DHT22;32073;49.166;8.076;2022-12-07T22:23:31;7.70;57.60
46366;DHT22;32073;49.166;8.076;2022-12-07T22:27:32;7.70;57.60
46366;DHT22;32073;49.166;8.076;2022-12-07T22:31:33;7.70;57.60
46366;DHT22;32073;49.166;8.076;2022-12-07T22:35:33;7.70;57.60
46366;DHT22;32073;49.166;8.076;2022-12-07T22:39:34;7.60;57.60
46366;DHT22;32073;49.166;8.076;2022-12-07T22:43:35;7.60;57.60
46366;DHT22;32073;49.166;8.076;2022-12-07T22:47:36;7.60;57.60
46366;DHT22;32073;49.166;8.076;2022-12-07T22:51:40;7.60;57.60
46366;DHT22;32073;49.166;8.076;2022-12-07T22:55:41;7.50;57.60
46366;DHT22;32073;49.166;8.076;2022-12-07T22:59:42;7.40;57.50
46366;DHT22;32073;49.166;8.076;2022-12-07T23:03:42;7.30;57.60
46366;DHT22;32073;49.166;8.076;2022-12-07T23:07:43;7.30;57.80
46366;DHT22;32073;49.166;8.076;2022-12-07T23:11:44;7.20;57.90
46366;DHT22;32073;49.166;8.076;2022-12-07T23:16:09;7.20;57.90
46366;DHT22;32073;49.166;8.076;2022-12-07T23:20:12;7.10;58.00
46366;DHT22;32073;49.166;8.076;2022-12-07T23:24:14;7.10;58.00
46366;DHT22;32073;49.166;8.076;2022-12-07T23:28:15;7.10;58.20
46366;DHT22;32073;49.166;8.076;2022-12-07T23:32:16;7.00;58.20
46366;DHT22;32073;49.166;8.076;2022-12-07T23:36:19;7.00;58.30
46366;DHT22;32073;49.166;8.076;2022-12-07T23:40:21;7.00;58.40
46366;DHT22;32073;49.166;8.076;2022-12-07T23:44:22;7.00;58.40
46366;DHT22;32073;49.166;8.076;2022-12-07T23:48:25;7.00;58.40
46366;DHT22;32073;49.166;8.076;2022-12-07T23:52:26;7.10;58.50
46366;DHT22;32073;49.166;8.076;2022-12-07T23:56:29;7.10;58.50
